Talkeetna, Talkeetna Airport (PATK)

NameTalkeetna Airport
CityTalkeetna
CountryUnited States
ICAOPATK
IATATKA
Altitude109 m
CoordinatesGoogle Map
Live Air TrafficLiveATC.net
METARPATK 182053Z 02004KT 1 1/4SM -SN BR FEW005 OVC017 M01/M02 A2969 RMK AO2 SLP060 P0003 60015 T10061022 58012
2019-02-18 20:53:00 Wind: North (20°) 2.06 m/s - Visibility: 6437.36 m - Weather: Light Snow / Mist - Temperature: -1 °C - Dew point: -2 °C - Humidity: 93% - Pressure: 1005.42 hPa
Statistics

The table below shows the detailed information of all flights to/from Talkeetna, Talkeetna Airport (PATK).